Time;durP1;ratioP1;P1;durP2;ratioP2;P2;SDS_P1;SDS_P2;PMS_P1;PMS_P2;Temp;Humidity;BMP_temperature;BMP_pressure;BME280_temperature;BME280_humidity;BME280_pressure;Samples;Min_cycle;Max_cycle;Signal;HPM_P1;HPM_P2
2022/05/08 00:00:32;;;;;;;0.10;0.05;;;10.20;99.90;;;;;;5096725;28;20047;-79
2022/05/08 00:02:58;;;;;;;0.00;0.00;;;10.00;99.90;;;;;;5113442;28;20047;-79
2022/05/08 00:05:27;;;;;;;0.08;0.00;;;10.00;99.90;;;;;;5113050;28;20109;-80
2022/05/08 00:07:53;;;;;;;0.00;0.00;;;9.90;99.90;;;;;;5113204;28;20083;-79
2022/05/08 00:10:19;;;;;;;0.00;0.00;;;9.80;99.90;;;;;;5113488;28;20082;-80
2022/05/08 00:12:46;;;;;;;0.00;0.00;;;9.70;99.90;;;;;;5096448;28;20040;-79
2022/05/08 00:15:12;;;;;;;0.00;0.00;;;9.70;99.90;;;;;;5113399;28;20039;-79
2022/05/08 00:17:37;;;;;;;6.22;0.08;;;9.60;99.90;;;;;;5096486;28;20173;-79
2022/05/08 00:20:06;;;;;;;0.32;0.32;;;9.50;99.90;;;;;;5113268;28;20044;-79
2022/05/08 00:22:31;;;;;;;0.20;0.20;;;9.50;99.90;;;;;;5113391;28;20047;-79
2022/05/08 00:24:59;;;;;;;0.00;0.00;;;9.40;99.90;;;;;;5114119;28;20042;-79
2022/05/08 00:27:24;;;;;;;0.28;0.28;;;9.40;99.90;;;;;;5113409;28;20126;-79
2022/05/08 00:29:50;;;;;;;0.63;0.30;;;9.30;99.90;;;;;;5113230;28;20147;-79
2022/05/08 00:32:16;;;;;;;0.10;0.10;;;9.30;99.90;;;;;;5113541;28;20138;-79
2022/05/08 00:34:41;;;;;;;0.10;0.10;;;9.20;99.90;;;;;;5112578;28;20039;-79
2022/05/08 00:37:07;;;;;;;0.65;0.45;;;9.20;99.90;;;;;;5113087;28;20035;-79
2022/05/08 00:39:32;;;;;;;0.00;0.00;;;9.10;99.90;;;;;;5112833;28;20057;-79
2022/05/08 00:41:59;;;;;;;0.00;0.00;;;9.10;99.90;;;;;;5113068;28;20075;-79
2022/05/08 00:44:25;;;;;;;0.00;0.00;;;9.00;99.90;;;;;;5111785;28;20055;-79
2022/05/08 00:46:51;;;;;;;0.38;0.20;;;9.00;99.90;;;;;;5095802;28;20055;-78
2022/05/08 00:49:16;;;;;;;0.00;0.00;;;9.00;99.90;;;;;;5113297;28;20092;-79
2022/05/08 00:51:47;;;;;;;0.00;0.00;;;8.90;99.90;;;;;;5095842;28;20068;-79
2022/05/08 00:54:13;;;;;;;0.00;0.00;;;8.90;99.90;;;;;;5096386;28;20483;-79
2022/05/08 00:56:40;;;;;;;0.30;0.10;;;8.90;99.90;;;;;;5112864;28;20174;-79
2022/05/08 00:59:06;;;;;;;0.13;0.13;;;8.80;99.90;;;;;;5113933;28;20084;-79
2022/05/08 01:01:31;;;;;;;0.00;0.00;;;8.80;99.90;;;;;;5116853;28;20081;-79
2022/05/08 01:03:57;;;;;;;0.52;0.52;;;8.80;99.90;;;;;;5116874;28;20040;-79
2022/05/08 01:06:23;;;;;;;0.00;0.00;;;8.80;99.90;;;;;;5099376;28;20059;-79
2022/05/08 01:08:50;;;;;;;0.00;0.00;;;8.80;99.90;;;;;;5100234;28;20043;-78
2022/05/08 01:11:16;;;;;;;0.20;0.20;;;8.70;99.90;;;;;;5116628;28;20079;-79
2022/05/08 01:13:43;;;;;;;0.65;0.35;;;8.70;99.90;;;;;;5099735;28;20517;-79
2022/05/08 01:16:16;;;;;;;0.00;0.00;;;8.80;99.90;;;;;;5099697;28;20077;-79
2022/05/08 01:18:44;;;;;;;0.45;0.00;;;8.80;99.90;;;;;;5116750;28;20487;-78
2022/05/08 01:21:14;;;;;;;0.00;0.00;;;8.70;99.90;;;;;;5116838;28;20097;-79
2022/05/08 01:23:40;;;;;;;0.05;0.05;;;8.70;99.90;;;;;;5116332;28;20043;-78
2022/05/08 01:26:06;;;;;;;0.00;0.00;;;8.70;99.90;;;;;;5116229;28;20074;-78
2022/05/08 01:28:32;;;;;;;0.00;0.00;;;8.70;99.90;;;;;;5117011;28;20054;-78
2022/05/08 01:30:58;;;;;;;0.00;0.00;;;8.70;99.90;;;;;;5098889;28;20047;-79
2022/05/08 01:33:25;;;;;;;1.45;0.55;;;8.70;99.90;;;;;;5099114;28;20056;-79
2022/05/08 01:35:51;;;;;;;0.00;0.00;;;8.70;99.90;;;;;;5099047;28;20505;-78
2022/05/08 01:38:19;;;;;;;0.00;0.00;;;8.60;99.90;;;;;;5116215;28;20035;-79
2022/05/08 01:40:45;;;;;;;0.00;0.00;;;8.60;99.90;;;;;;5116102;28;20112;-78
2022/05/08 01:43:12;;;;;;;0.43;0.43;;;8.60;99.90;;;;;;5116290;28;20048;-79
2022/05/08 01:45:38;;;;;;;0.38;0.20;;;8.60;99.90;;;;;;5115645;28;20126;-79
2022/05/08 01:48:23;;;;;;;0.13;0.13;;;8.60;99.90;;;;;;5098913;28;20047;-79
2022/05/08 01:50:53;;;;;;;0.00;0.00;;;8.60;99.90;;;;;;5098896;28;20486;-78
2022/05/08 01:53:23;;;;;;;0.17;0.13;;;8.50;99.90;;;;;;5115837;28;20100;-78
2022/05/08 01:55:53;;;;;;;0.00;0.00;;;8.50;99.90;;;;;;5116136;28;20463;-78
2022/05/08 01:58:19;;;;;;;0.65;0.00;;;8.40;99.90;;;;;;5116045;28;20462;-79
2022/05/08 02:00:46;;;;;;;0.17;0.17;;;8.40;99.90;;;;;;5098611;28;20479;-78
2022/05/08 02:03:12;;;;;;;0.00;0.00;;;8.30;99.90;;;;;;5115598;28;20510;-79
2022/05/08 02:05:42;;;;;;;0.08;0.00;;;8.30;99.90;;;;;;5098532;28;20094;-79
2022/05/08 02:08:09;;;;;;;0.00;0.00;;;8.20;99.90;;;;;;5099457;28;20395;-78
2022/05/08 02:10:36;;;;;;;0.08;0.08;;;8.10;99.90;;;;;;5115631;28;20040;-79
2022/05/08 02:13:02;;;;;;;0.30;0.17;;;8.10;99.90;;;;;;5116232;28;20376;-79
2022/05/08 02:15:29;;;;;;;0.52;0.52;;;8.00;99.90;;;;;;5115842;28;20143;-79
2022/05/08 02:18:03;;;;;;;0.25;0.25;;;8.00;99.90;;;;;;5098695;28;20399;-79
2022/05/08 02:20:30;;;;;;;0.15;0.15;;;7.90;99.90;;;;;;5098463;28;20047;-79
2022/05/08 02:22:56;;;;;;;3.72;0.45;;;7.90;99.90;;;;;;5115804;28;20119;-78
2022/05/08 02:25:22;;;;;;;0.00;0.00;;;7.90;99.90;;;;;;5098149;28;20035;-78
2022/05/08 02:27:51;;;;;;;0.00;0.00;;;7.70;99.90;;;;;;5115497;28;20498;-79
2022/05/08 02:30:20;;;;;;;0.30;0.05;;;7.70;99.90;;;;;;5115382;28;20079;-78
2022/05/08 02:32:45;;;;;;;0.00;0.00;;;7.70;99.90;;;;;;5115452;28;20036;-79
2022/05/08 02:35:11;;;;;;;0.00;0.00;;;7.60;99.90;;;;;;5115651;28;20150;-78
2022/05/08 02:37:41;;;;;;;0.00;0.00;;;7.60;99.90;;;;;;5098058;28;20411;-79
2022/05/08 02:40:10;;;;;;;0.00;0.00;;;7.50;99.90;;;;;;5098442;28;20403;-78
2022/05/08 02:42:38;;;;;;;0.00;0.00;;;7.50;99.90;;;;;;5115368;28;20105;-79
2022/05/08 02:45:05;;;;;;;0.00;0.00;;;7.40;99.90;;;;;;5097605;28;20046;-78
2022/05/08 02:47:34;;;;;;;0.00;0.00;;;7.30;99.90;;;;;;5115033;28;20051;-79
2022/05/08 02:50:00;;;;;;;0.20;0.17;;;7.30;99.90;;;;;;5098677;28;20365;-78
2022/05/08 02:52:26;;;;;;;0.00;0.00;;;7.20;99.90;;;;;;5097994;28;20069;-78
2022/05/08 02:54:51;;;;;;;2.10;0.70;;;7.10;99.90;;;;;;5115440;28;20471;-79
2022/05/08 03:00:06;;;;;;;0.00;0.00;;;7.10;99.90;;;;;;5114625;28;20485;-79
2022/05/08 03:02:35;;;;;;;0.10;0.10;;;7.00;99.90;;;;;;5097673;28;20052;-79
2022/05/08 03:05:03;;;;;;;0.00;0.00;;;7.00;99.90;;;;;;5097251;28;20093;-78
2022/05/08 03:07:29;;;;;;;0.00;0.00;;;6.90;99.90;;;;;;5114300;28;20059;-79
2022/05/08 03:09:55;;;;;;;0.00;0.00;;;6.90;99.90;;;;;;5097461;28;20087;-79
2022/05/08 03:12:21;;;;;;;0.00;0.00;;;6.90;99.90;;;;;;5097147;28;20059;-78
2022/05/08 03:14:46;;;;;;;0.00;0.00;;;6.90;99.90;;;;;;5096948;28;20063;-79
2022/05/08 03:17:12;;;;;;;0.00;0.00;;;6.80;99.90;;;;;;5112922;28;20043;-78
2022/05/08 03:19:38;;;;;;;0.00;0.00;;;6.80;99.90;;;;;;5096496;28;20058;-78
2022/05/08 03:22:03;;;;;;;0.10;0.00;;;6.70;99.90;;;;;;5113695;28;20054;-79
2022/05/08 03:24:29;;;;;;;0.15;0.15;;;6.70;99.90;;;;;;5114067;28;20047;-79
2022/05/08 03:26:56;;;;;;;0.00;0.00;;;6.60;99.90;;;;;;5114135;28;20490;-79
2022/05/08 03:29:24;;;;;;;0.00;0.00;;;6.60;99.90;;;;;;5097131;28;20043;-79
2022/05/08 03:31:49;;;;;;;0.00;0.00;;;6.60;99.90;;;;;;5097139;28;20410;-79
2022/05/08 03:34:15;;;;;;;0.00;0.00;;;6.50;99.90;;;;;;5097045;28;20051;-79
2022/05/08 03:36:41;;;;;;;0.00;0.00;;;6.50;99.90;;;;;;5114069;28;20128;-79
2022/05/08 03:39:06;;;;;;;0.00;0.00;;;6.60;99.90;;;;;;5096912;28;20059;-79
2022/05/08 03:41:32;;;;;;;0.00;0.00;;;6.60;99.90;;;;;;5096915;28;20039;-79
2022/05/08 03:43:57;;;;;;;0.00;0.00;;;6.50;99.90;;;;;;5113477;28;20391;-79
2022/05/08 03:46:23;;;;;;;0.00;0.00;;;6.40;99.90;;;;;;5096980;28;20043;-78
2022/05/08 03:48:49;;;;;;;0.00;0.00;;;6.40;99.90;;;;;;5113860;28;20031;-79
2022/05/08 03:51:14;;;;;;;0.00;0.00;;;6.40;99.90;;;;;;5114072;28;20039;-79
2022/05/08 03:53:40;;;;;;;0.88;0.10;;;6.40;99.90;;;;;;5096540;28;20056;-79
2022/05/08 03:56:08;;;;;;;0.00;0.00;;;6.40;99.90;;;;;;5113725;28;20058;-79
2022/05/08 03:58:34;;;;;;;0.00;0.00;;;6.40;99.90;;;;;;5097079;28;20111;-79
2022/05/08 04:00:59;;;;;;;0.00;0.00;;;6.30;99.90;;;;;;5096552;28;20051;-79
2022/05/08 04:03:25;;;;;;;0.00;0.00;;;6.30;99.90;;;;;;5096703;28;20058;-79
2022/05/08 04:05:51;;;;;;;1.77;0.05;;;6.30;99.90;;;;;;5095786;28;20051;-79
2022/05/08 04:08:16;;;;;;;0.95;0.28;;;6.30;99.90;;;;;;5095636;28;20044;-79
2022/05/08 04:10:42;;;;;;;0.00;0.00;;;6.30;99.90;;;;;;5113645;28;20058;-79
2022/05/08 04:13:08;;;;;;;0.00;0.00;;;6.40;99.90;;;;;;5112588;28;20040;-79
2022/05/08 04:18:17;;;;;;;0.20;0.20;;;6.60;99.90;;;;;;5112698;28;20487;-79
2022/05/08 04:20:43;;;;;;;0.00;0.00;;;6.50;99.90;;;;;;5095559;28;20087;-79
2022/05/08 04:25:53;;;;;;;0.00;0.00;;;6.40;99.90;;;;;;5112141;28;20040;-79
2022/05/08 04:28:19;;;;;;;0.82;0.35;;;6.40;99.90;;;;;;5112379;28;20125;-79
2022/05/08 04:30:47;;;;;;;0.00;0.00;;;6.50;99.90;;;;;;5095592;28;20407;-79
2022/05/08 04:33:13;;;;;;;0.20;0.20;;;6.50;99.90;;;;;;5111350;28;20044;-79
2022/05/08 04:35:38;;;;;;;0.00;0.00;;;6.50;99.90;;;;;;5112095;28;20055;-79
2022/05/08 04:38:04;;;;;;;0.00;0.00;;;6.60;99.90;;;;;;5095180;28;20483;-79
2022/05/08 04:40:30;;;;;;;0.00;0.00;;;6.60;99.90;;;;;;5095497;28;20059;-79
2022/05/08 04:42:55;;;;;;;0.00;0.00;;;6.60;99.90;;;;;;5112438;28;20449;-79
2022/05/08 04:45:21;;;;;;;0.00;0.00;;;6.70;99.90;;;;;;5111774;28;20047;-79
2022/05/08 04:47:46;;;;;;;0.00;0.00;;;6.70;99.90;;;;;;5112091;28;20396;-79
2022/05/08 04:50:12;;;;;;;4.70;0.00;;;6.80;99.90;;;;;;5112145;28;20126;-79
2022/05/08 04:52:38;;;;;;;0.00;0.00;;;6.90;99.90;;;;;;5111781;28;20050;-79
2022/05/08 04:55:04;;;;;;;0.00;0.00;;;6.90;99.90;;;;;;5112061;28;20047;-79
2022/05/08 04:57:30;;;;;;;0.00;0.00;;;6.90;99.90;;;;;;5112069;28;20089;-79
2022/05/08 04:59:57;;;;;;;0.40;0.30;;;7.00;99.90;;;;;;5112262;28;20071;-79
2022/05/08 05:02:22;;;;;;;0.00;0.00;;;7.00;99.90;;;;;;5095224;28;20085;-79
2022/05/08 05:04:48;;;;;;;0.00;0.00;;;7.00;99.90;;;;;;5094641;28;20065;-79
2022/05/08 05:07:14;;;;;;;0.00;0.00;;;7.10;99.90;;;;;;5048715;28;1309093;-79
2022/05/08 05:09:40;;;;;;;0.32;0.32;;;7.20;99.90;;;;;;5112791;28;20435;-79
2022/05/08 05:12:06;;;;;;;0.00;0.00;;;7.20;99.90;;;;;;5095617;28;20491;-79
2022/05/08 05:14:32;;;;;;;0.15;0.15;;;7.20;99.90;;;;;;5112419;28;20487;-79
2022/05/08 05:17:00;;;;;;;0.57;0.10;;;7.30;99.90;;;;;;5095538;28;20071;-79
2022/05/08 05:19:29;;;;;;;0.00;0.00;;;7.30;99.90;;;;;;5095648;28;20055;-79
2022/05/08 05:21:55;;;;;;;0.00;0.00;;;7.40;99.90;;;;;;5095789;28;20146;-79
2022/05/08 05:24:21;;;;;;;0.00;0.00;;;7.40;99.90;;;;;;5112424;28;20181;-79
2022/05/08 05:26:46;;;;;;;0.00;0.00;;;7.50;99.90;;;;;;5112777;28;20592;-79
2022/05/08 05:29:14;;;;;;;0.00;0.00;;;7.60;99.90;;;;;;5112576;28;20071;-79
2022/05/08 05:31:40;;;;;;;3.15;0.43;;;7.60;99.90;;;;;;5095448;28;20555;-79
2022/05/08 05:34:06;;;;;;;0.00;0.00;;;7.70;99.90;;;;;;5112488;28;20130;-79
2022/05/08 05:36:32;;;;;;;0.00;0.00;;;7.80;99.90;;;;;;5095972;28;20391;-79
2022/05/08 05:38:57;;;;;;;0.00;0.00;;;7.90;99.90;;;;;;5113244;28;20036;-79
2022/05/08 05:41:23;;;;;;;0.20;0.20;;;8.00;99.90;;;;;;5095590;28;20087;-79
2022/05/08 05:43:48;;;;;;;0.38;0.38;;;8.10;99.90;;;;;;5094886;28;20079;-79
2022/05/08 05:48:58;;;;;;;1.98;0.00;;;8.30;99.90;;;;;;5116272;28;20391;-80
2022/05/08 05:51:24;;;;;;;0.00;0.00;;;8.40;99.90;;;;;;5116920;28;20039;-80
2022/05/08 05:53:49;;;;;;;0.00;0.00;;;8.60;99.90;;;;;;5115851;28;20040;-79
2022/05/08 05:56:15;;;;;;;0.50;0.08;;;8.80;99.90;;;;;;5099104;28;20104;-80
2022/05/08 05:58:41;;;;;;;4.40;1.13;;;8.80;99.90;;;;;;5098982;28;20558;-80
2022/05/08 06:01:06;;;;;;;0.10;0.10;;;8.90;99.90;;;;;;5115859;28;20069;-79
2022/05/08 06:03:33;;;;;;;0.00;0.00;;;9.00;99.90;;;;;;5115863;28;20047;-80
2022/05/08 06:05:58;;;;;;;0.15;0.13;;;9.10;99.90;;;;;;5099072;28;20063;-79
2022/05/08 06:08:24;;;;;;;0.00;0.00;;;9.10;99.90;;;;;;5115335;28;20488;-80
2022/05/08 06:10:50;;;;;;;0.03;0.00;;;9.10;99.90;;;;;;5115824;28;20047;-79
2022/05/08 06:13:16;;;;;;;0.00;0.00;;;9.20;99.90;;;;;;5115609;28;20051;-80
2022/05/08 06:15:42;;;;;;;0.00;0.00;;;9.20;99.90;;;;;;5098847;28;20092;-79
2022/05/08 06:18:08;;;;;;;0.00;0.00;;;9.30;99.90;;;;;;5098719;28;20101;-79
2022/05/08 06:20:34;;;;;;;0.00;0.00;;;9.40;99.90;;;;;;5115466;28;20040;-79
2022/05/08 06:23:00;;;;;;;0.00;0.00;;;9.50;99.90;;;;;;5115572;28;20044;-80
2022/05/08 06:25:26;;;;;;;0.00;0.00;;;9.70;99.90;;;;;;5098518;28;20047;-80
2022/05/08 06:27:52;;;;;;;0.20;0.20;;;9.90;99.90;;;;;;5115090;28;20410;-80
2022/05/08 06:30:18;;;;;;;0.00;0.00;;;9.90;99.90;;;;;;5098056;28;20058;-79
2022/05/08 06:32:43;;;;;;;0.00;0.00;;;10.00;99.90;;;;;;5098273;28;20063;-79
2022/05/08 06:35:09;;;;;;;0.00;0.00;;;10.00;99.90;;;;;;5116002;28;20479;-80
2022/05/08 06:37:35;;;;;;;0.22;0.00;;;10.00;99.90;;;;;;5114605;28;20399;-80
2022/05/08 06:40:00;;;;;;;0.00;0.00;;;10.10;99.90;;;;;;5115378;28;20036;-79
2022/05/08 06:42:26;;;;;;;0.00;0.00;;;10.20;99.90;;;;;;5098452;28;20059;-80
2022/05/08 06:44:51;;;;;;;0.47;0.15;;;10.30;99.90;;;;;;5114752;28;20534;-79
2022/05/08 06:47:17;;;;;;;0.00;0.00;;;10.40;99.90;;;;;;5115100;28;20087;-79
2022/05/08 06:49:43;;;;;;;0.00;0.00;;;10.50;99.90;;;;;;5114691;28;20082;-79
2022/05/08 06:52:08;;;;;;;0.00;0.00;;;10.90;99.90;;;;;;5114994;28;20039;-79
2022/05/08 06:54:34;;;;;;;0.00;0.00;;;11.20;99.90;;;;;;5114329;28;20101;-79
2022/05/08 06:57:00;;;;;;;1.95;0.20;;;11.50;99.90;;;;;;5113394;28;20048;-80
2022/05/08 07:02:27;;;;;;;0.00;0.00;;;12.00;99.90;;;;;;5097030;28;20044;-79
2022/05/08 07:04:52;;;;;;;0.60;0.30;;;12.40;99.90;;;;;;5079528;28;20047;-79
2022/05/08 07:07:20;;;;;;;0.00;0.00;;;12.50;99.90;;;;;;5079184;28;20094;-79
2022/05/08 07:09:46;;;;;;;0.00;0.00;;;12.60;99.90;;;;;;5079669;28;20083;-79
2022/05/08 07:12:11;;;;;;;0.60;0.20;;;12.50;99.90;;;;;;5079454;28;20556;-80
2022/05/08 07:14:40;;;;;;;0.00;0.00;;;12.60;99.90;;;;;;5079682;28;20044;-80
2022/05/08 07:17:06;;;;;;;0.00;0.00;;;12.60;99.90;;;;;;5096257;28;20048;-79
2022/05/08 07:19:32;;;;;;;0.00;0.00;;;12.60;99.90;;;;;;5095672;28;20549;-79
2022/05/08 07:21:58;;;;;;;1.65;0.70;;;12.70;99.90;;;;;;5096486;28;20154;-79
2022/05/08 07:24:23;;;;;;;0.30;0.20;;;12.60;99.90;;;;;;5096064;28;20047;-79
2022/05/08 07:26:49;;;;;;;0.75;0.55;;;13.00;99.90;;;;;;5079323;28;20047;-79
2022/05/08 07:29:15;;;;;;;0.22;0.22;;;13.30;99.90;;;;;;5078042;28;20051;-79
2022/05/08 07:31:42;;;;;;;0.00;0.00;;;13.50;99.90;;;;;;5095757;28;20042;-79
2022/05/08 07:36:53;;;;;;;0.00;0.00;;;13.70;99.30;;;;;;5107623;28;20376;-79
2022/05/08 07:39:18;;;;;;;0.65;0.13;;;14.00;99.10;;;;;;5113846;28;20042;-79
2022/05/08 07:41:44;;;;;;;0.00;0.00;;;14.20;99.30;;;;;;5097077;28;20433;-79
2022/05/08 07:44:09;;;;;;;11.60;0.85;;;14.10;98.60;;;;;;5113654;28;20089;-79
2022/05/08 07:46:35;;;;;;;0.00;0.00;;;13.90;98.40;;;;;;5113893;28;20086;-79
2022/05/08 07:49:01;;;;;;;0.00;0.00;;;14.00;98.00;;;;;;5113707;28;20050;-79
2022/05/08 07:51:27;;;;;;;0.00;0.00;;;14.20;98.70;;;;;;5113747;28;20039;-79
2022/05/08 07:53:52;;;;;;;0.00;0.00;;;14.10;97.50;;;;;;5097143;28;20167;-79
2022/05/08 07:56:18;;;;;;;0.30;0.20;;;14.00;97.00;;;;;;5113938;28;20047;-79
2022/05/08 07:58:44;;;;;;;0.00;0.00;;;14.20;96.90;;;;;;5114299;28;20038;-79
2022/05/08 08:01:10;;;;;;;0.00;0.00;;;14.20;97.50;;;;;;5096946;28;20495;-79
2022/05/08 08:03:36;;;;;;;0.00;0.00;;;14.30;96.90;;;;;;5113550;28;20483;-79
2022/05/08 08:06:02;;;;;;;0.00;0.00;;;14.40;96.20;;;;;;5113481;28;20111;-80
2022/05/08 08:08:28;;;;;;;0.00;0.00;;;14.40;94.80;;;;;;5095619;28;20591;-79
2022/05/08 08:10:58;;;;;;;0.00;0.00;;;14.50;95.60;;;;;;5096437;28;20043;-79
2022/05/08 08:13:26;;;;;;;0.00;0.00;;;14.60;94.90;;;;;;5095536;28;20043;-81
2022/05/08 08:15:52;;;;;;;0.00;0.00;;;14.60;93.90;;;;;;5110855;28;20044;-80
2022/05/08 08:18:18;;;;;;;0.00;0.00;;;14.80;93.50;;;;;;5112034;28;20051;-80
2022/05/08 08:20:45;;;;;;;0.00;0.00;;;14.80;94.10;;;;;;5110920;28;20060;-80
2022/05/08 08:23:11;;;;;;;0.17;0.17;;;14.80;92.80;;;;;;5094430;28;20098;-80
2022/05/08 08:25:37;;;;;;;0.03;0.00;;;14.70;93.10;;;;;;5093397;28;20086;-80
2022/05/08 08:28:03;;;;;;;0.20;0.10;;;14.90;94.40;;;;;;5111976;28;20048;-80
2022/05/08 08:30:29;;;;;;;0.00;0.00;;;14.90;93.60;;;;;;5094228;28;20514;-80
2022/05/08 08:32:55;;;;;;;0.00;0.00;;;15.00;93.90;;;;;;5094446;28;20479;-81
2022/05/08 08:35:21;;;;;;;0.03;0.03;;;14.90;93.30;;;;;;5094124;28;20043;-80
2022/05/08 08:37:46;;;;;;;0.00;0.00;;;15.00;93.20;;;;;;5095130;28;20043;-80
2022/05/08 08:40:13;;;;;;;0.00;0.00;;;14.80;92.80;;;;;;5111658;28;20044;-81
2022/05/08 08:42:41;;;;;;;0.00;0.00;;;14.50;93.60;;;;;;5111439;28;20131;-80
2022/05/08 08:47:58;;;;;;;0.00;0.00;;;14.60;94.40;;;;;;5105951;28;20131;-80
2022/05/08 08:50:26;;;;;;;0.13;0.13;;;14.90;94.10;;;;;;5074463;28;20495;-80
2022/05/08 08:53:05;;;;;;;0.00;0.00;;;15.10;92.60;;;;;;5091949;28;20445;-81
2022/05/08 08:55:32;;;;;;;0.10;0.10;;;15.20;92.00;;;;;;5092968;28;20132;-80
2022/05/08 08:57:58;;;;;;;0.13;0.13;;;15.20;91.10;;;;;;5092897;28;20130;-81
2022/05/08 09:00:25;;;;;;;0.00;0.00;;;15.10;91.00;;;;;;5092512;28;20093;-80
2022/05/08 09:02:54;;;;;;;0.00;0.00;;;15.10;91.10;;;;;;5092707;28;20040;-80
2022/05/08 09:05:21;;;;;;;0.98;0.38;;;15.10;91.60;;;;;;5092282;28;20048;-80
2022/05/08 09:07:48;;;;;;;0.00;0.00;;;15.10;90.90;;;;;;5092101;28;20051;-80
2022/05/08 09:10:16;;;;;;;0.08;0.00;;;15.40;91.90;;;;;;5092272;28;20056;-80
2022/05/08 09:12:52;;;;;;;0.00;0.00;;;15.70;91.00;;;;;;5092473;28;20044;-81
2022/05/08 09:15:27;;;;;;;0.00;0.00;;;15.90;91.50;;;;;;5092473;28;20044;-80
2022/05/08 09:17:57;;;;;;;0.00;0.00;;;16.00;91.00;;;;;;5075577;28;20063;-80
2022/05/08 09:20:32;;;;;;;0.10;0.10;;;16.00;91.50;;;;;;5077408;28;20048;-80
2022/05/08 09:23:15;;;;;;;0.05;0.05;;;16.20;91.60;;;;;;5079649;28;20387;-80
2022/05/08 09:25:53;;;;;;;0.00;0.00;;;16.30;91.30;;;;;;5079503;28;20472;-80
2022/05/08 09:28:26;;;;;;;0.00;0.00;;;16.30;90.30;;;;;;5096024;28;20195;-81
2022/05/08 09:30:56;;;;;;;0.38;0.30;;;16.20;89.80;;;;;;5096128;28;20040;-80
2022/05/08 09:33:28;;;;;;;0.00;0.00;;;16.20;89.20;;;;;;5096550;28;20495;-80
2022/05/08 09:35:55;;;;;;;0.10;0.10;;;16.00;88.80;;;;;;5078989;28;20093;-80
2022/05/08 09:38:21;;;;;;;0.00;0.00;;;16.20;90.00;;;;;;5096590;28;20138;-80
2022/05/08 09:41:04;;;;;;;0.00;0.00;;;16.30;89.40;;;;;;5079042;28;20205;-81
2022/05/08 09:43:30;;;;;;;0.20;0.20;;;16.40;91.10;;;;;;5079254;28;20055;-80
2022/05/08 09:45:57;;;;;;;0.52;0.47;;;16.40;90.20;;;;;;5078276;28;20055;-80
2022/05/08 09:48:26;;;;;;;0.00;0.00;;;16.50;90.10;;;;;;5095776;28;20055;-80
2022/05/08 09:50:58;;;;;;;0.00;0.00;;;16.70;90.10;;;;;;5095684;28;20181;-80
2022/05/08 09:53:24;;;;;;;0.00;0.00;;;16.80;87.00;;;;;;5095865;28;20047;-80
2022/05/08 09:55:52;;;;;;;0.00;0.00;;;16.70;83.10;;;;;;5078894;28;20127;-80
2022/05/08 09:58:19;;;;;;;0.15;0.15;;;16.80;87.30;;;;;;5095585;28;20048;-80
2022/05/08 10:00:45;;;;;;;0.05;0.05;;;16.80;84.10;;;;;;5095651;28;20051;-80
2022/05/08 10:03:11;;;;;;;0.98;0.32;;;17.00;84.00;;;;;;5078411;28;20583;-80
2022/05/08 10:05:38;;;;;;;1.85;0.52;;;16.90;82.70;;;;;;5094860;28;20040;-80
2022/05/08 10:08:07;;;;;;;0.45;0.00;;;17.00;84.00;;;;;;5095621;28;20060;-80
2022/05/08 10:14:05;;;;;;;0.00;0.00;;;17.40;84.00;;;;;;5095215;28;20052;-80
2022/05/08 10:16:48;;;;;;;0.00;0.00;;;17.50;82.00;;;;;;5060405;28;20082;-80
2022/05/08 10:19:19;;;;;;;0.00;0.00;;;17.60;82.10;;;;;;5077193;28;20056;-80
2022/05/08 10:22:03;;;;;;;0.00;0.00;;;17.70;81.90;;;;;;5077186;28;20139;-80
2022/05/08 10:24:33;;;;;;;0.15;0.15;;;17.90;80.50;;;;;;5060552;28;20047;-80
2022/05/08 10:27:29;;;;;;;0.45;0.17;;;18.00;78.70;;;;;;5077237;28;20059;-80
2022/05/08 10:29:54;;;;;;;0.00;0.00;;;18.00;75.90;;;;;;4997622;28;20073;-80
2022/05/08 10:32:32;;;;;;;0.13;0.13;;;17.80;77.40;;;;;;5014415;28;20054;-80
2022/05/08 10:35:06;;;;;;;0.00;0.00;;;17.90;78.50;;;;;;5013968;28;20065;-80
2022/05/08 10:37:32;;;;;;;0.40;0.20;;;17.80;75.20;;;;;;5013817;28;20042;-80
2022/05/08 10:39:58;;;;;;;0.00;0.00;;;18.10;78.70;;;;;;4997710;28;20405;-81
2022/05/08 10:42:29;;;;;;;0.20;0.00;;;18.20;77.10;;;;;;5014331;28;20072;-80
2022/05/08 10:44:56;;;;;;;0.00;0.00;;;18.10;72.90;;;;;;5014188;28;20594;-80
2022/05/08 10:47:36;;;;;;;0.22;0.22;;;18.30;74.60;;;;;;5001090;28;20060;-81
2022/05/08 10:50:06;;;;;;;0.20;0.10;;;18.30;74.90;;;;;;5016943;28;20057;-82
2022/05/08 10:52:33;;;;;;;0.00;0.00;;;18.30;74.50;;;;;;5017406;28;20057;-81
2022/05/08 10:55:05;;;;;;;0.00;0.00;;;18.40;72.40;;;;;;5017196;28;20456;-81
2022/05/08 10:57:32;;;;;;;4.38;0.63;;;18.50;73.20;;;;;;5017959;28;20056;-81
2022/05/08 10:59:59;;;;;;;0.00;0.00;;;18.60;75.50;;;;;;5017515;28;20060;-81
2022/05/08 11:02:44;;;;;;;0.40;0.40;;;18.60;68.90;;;;;;5017202;28;20512;-81
2022/05/08 11:05:12;;;;;;;0.50;0.08;;;18.70;73.10;;;;;;5033761;28;20042;-80
2022/05/08 11:07:39;;;;;;;1.27;0.30;;;18.90;72.20;;;;;;5085832;28;20052;-80
2022/05/08 11:10:28;;;;;;;0.10;0.10;;;19.10;71.90;;;;;;5094644;28;20044;-81
2022/05/08 11:13:11;;;;;;;0.00;0.00;;;19.20;66.50;;;;;;5095272;28;20051;-81
2022/05/08 11:15:48;;;;;;;1.55;0.45;;;19.40;69.80;;;;;;5094602;28;20526;-81
2022/05/08 11:18:18;;;;;;;0.00;0.00;;;19.40;65.80;;;;;;5081767;28;20490;-81
2022/05/08 11:20:47;;;;;;;0.00;0.00;;;19.60;66.20;;;;;;5099563;28;20052;-81
2022/05/08 11:23:18;;;;;;;0.00;0.00;;;19.70;66.00;;;;;;5100047;28;20476;-81
2022/05/08 11:25:48;;;;;;;0.08;0.08;;;19.80;66.30;;;;;;5083063;28;20040;-81
2022/05/08 11:28:15;;;;;;;0.00;0.00;;;19.90;63.70;;;;;;5099364;28;20152;-81
2022/05/08 11:30:42;;;;;;;0.45;0.20;;;20.00;66.90;;;;;;5099254;28;20095;-80
2022/05/08 11:36:06;;;;;;;0.00;0.00;;;19.90;65.90;;;;;;5096736;28;20113;-81
2022/05/08 11:38:54;;;;;;;0.10;0.10;;;20.10;64.10;;;;;;5095601;28;20067;-81
2022/05/08 11:41:20;;;;;;;0.20;0.00;;;20.20;62.60;;;;;;5094034;28;20135;-81
2022/05/08 11:43:50;;;;;;;0.00;0.00;;;20.20;60.20;;;;;;5076436;28;20056;-81
2022/05/08 11:46:18;;;;;;;0.30;0.10;;;20.30;63.30;;;;;;5094448;28;20130;-82
2022/05/08 11:48:49;;;;;;;0.00;0.00;;;20.20;60.80;;;;;;5093951;28;20487;-82
2022/05/08 11:51:19;;;;;;;0.52;0.10;;;19.90;59.80;;;;;;5076599;28;20383;-81
2022/05/08 11:53:50;;;;;;;0.00;0.00;;;20.10;61.50;;;;;;5093957;28;20486;-81
2022/05/08 11:56:38;;;;;;;0.00;0.00;;;20.30;59.90;;;;;;5076379;28;20502;-81
2022/05/08 11:59:16;;;;;;;0.00;0.00;;;20.40;59.70;;;;;;5076772;28;20139;-81
2022/05/08 12:01:51;;;;;;;0.10;0.10;;;20.50;61.80;;;;;;5093389;28;20105;-81
2022/05/08 12:04:37;;;;;;;0.10;0.00;;;20.60;60.30;;;;;;5093865;28;20040;-81
2022/05/08 12:07:12;;;;;;;0.00;0.00;;;20.70;61.20;;;;;;5093164;28;20060;-81
2022/05/08 12:09:38;;;;;;;0.00;0.00;;;20.80;59.60;;;;;;5076271;28;20087;-81
2022/05/08 12:12:38;;;;;;;0.10;0.10;;;20.80;61.60;;;;;;5075983;28;20487;-81
2022/05/08 12:15:06;;;;;;;0.00;0.00;;;20.90;59.70;;;;;;5075462;28;20055;-81
2022/05/08 12:17:44;;;;;;;0.00;0.00;;;20.90;56.60;;;;;;5075136;28;20093;-81
2022/05/08 12:20:12;;;;;;;0.40;0.10;;;20.90;56.10;;;;;;5058766;28;20162;-81
2022/05/08 12:22:39;;;;;;;0.00;0.00;;;21.00;58.00;;;;;;5075036;28;20058;-81
2022/05/08 12:25:06;;;;;;;0.00;0.00;;;21.00;58.50;;;;;;5074930;28;20532;-82
2022/05/08 12:27:33;;;;;;;0.05;0.03;;;20.80;57.50;;;;;;5074752;28;20483;-81
2022/05/08 12:30:00;;;;;;;0.00;0.00;;;20.90;57.00;;;;;;5075049;28;20048;-81
2022/05/08 12:32:26;;;;;;;0.00;0.00;;;20.90;58.00;;;;;;5058389;28;20461;-80
2022/05/08 12:34:53;;;;;;;0.00;0.00;;;21.00;56.60;;;;;;5075125;28;20138;-80
2022/05/08 12:37:20;;;;;;;0.03;0.03;;;21.00;55.50;;;;;;5075018;28;20059;-81
2022/05/08 12:39:46;;;;;;;0.15;0.15;;;21.10;57.10;;;;;;5074988;28;20040;-81
2022/05/08 12:42:13;;;;;;;0.00;0.00;;;21.10;58.60;;;;;;5075410;28;20143;-81
2022/05/08 12:44:39;;;;;;;0.00;0.00;;;21.10;56.90;;;;;;5074950;28;20094;-80
2022/05/08 12:47:10;;;;;;;0.00;0.00;;;21.10;57.10;;;;;;5075211;28;20083;-81
2022/05/08 12:49:37;;;;;;;0.00;0.00;;;21.20;56.20;;;;;;5074835;28;20055;-81
2022/05/08 12:52:04;;;;;;;0.00;0.00;;;21.20;52.90;;;;;;5092514;28;20403;-81
2022/05/08 12:54:30;;;;;;;0.00;0.00;;;21.10;54.50;;;;;;5093403;28;20036;-81
2022/05/08 12:56:56;;;;;;;0.00;0.00;;;21.20;53.80;;;;;;5097225;28;20044;-82
2022/05/08 13:02:06;;;;;;;0.45;0.43;;;21.10;54.70;;;;;;5096757;28;20395;-81
2022/05/08 13:04:32;;;;;;;1.40;0.25;;;21.10;53.40;;;;;;5079713;28;20048;-81
2022/05/08 13:06:58;;;;;;;0.73;0.55;;;21.10;53.40;;;;;;5105592;28;20066;-80
2022/05/08 13:09:24;;;;;;;0.00;0.00;;;21.00;55.00;;;;;;5109697;28;20039;-81
2022/05/08 13:11:49;;;;;;;0.00;0.00;;;21.10;55.00;;;;;;5077527;28;20068;-81
2022/05/08 13:14:15;;;;;;;0.00;0.00;;;21.20;56.20;;;;;;5094170;28;20060;-80
2022/05/08 13:16:41;;;;;;;0.00;0.00;;;21.30;55.50;;;;;;5093566;28;20113;-80
2022/05/08 13:19:07;;;;;;;0.85;0.30;;;21.30;54.80;;;;;;5093563;28;20395;-81
2022/05/08 13:21:33;;;;;;;0.00;0.00;;;21.00;53.70;;;;;;5095214;28;20403;-80
2022/05/08 13:23:59;;;;;;;0.05;0.00;;;21.10;54.70;;;;;;5094830;28;20491;-80